Time;durP1;ratioP1;P1;durP2;ratioP2;P2;SDS_P1;SDS_P2;PMS_P1;PMS_P2;Temp;Humidity;BMP_temperature;BMP_pressure;BME280_temperature;BME280_humidity;BME280_pressure;Samples;Min_cycle;Max_cycle;Signal;HPM_P1;HPM_P2
2020/12/20 00:12:21;;;;;;;51.98;19.75;;;;;;;1.20;100.00;101435.55;10819597;81;21147;-80
2020/12/20 00:27:28;;;;;;;48.00;20.52;;;;;;;1.43;100.00;101427.92;10674066;81;21021;-81
2020/12/20 00:42:33;;;;;;;51.15;22.07;;;;;;;1.55;100.00;101406.46;10690289;81;21045;-81
2020/12/20 00:57:38;;;;;;;53.98;22.65;;;;;;;1.77;100.00;101403.55;10781144;81;21068;-80
2020/12/20 01:12:42;;;;;;;64.70;23.85;;;;;;;1.98;100.00;101376.56;10716857;81;21087;-80
2020/12/20 01:27:47;;;;;;;72.12;26.97;;;;;;;2.13;100.00;101385.53;10369045;84;21020;-81
2020/12/20 01:42:56;;;;;;;74.12;26.12;;;;;;;2.13;100.00;101385.53;10717470;82;21073;-80
2020/12/20 01:58:00;;;;;;;84.05;27.05;;;;;;;2.31;100.00;101386.17;10696038;82;21039;-80
2020/12/20 02:13:05;;;;;;;81.80;27.98;;;;;;;2.30;100.00;101385.77;10780568;82;21116;-82
2020/12/20 02:28:09;;;;;;;72.75;26.62;;;;;;;2.35;100.00;101386.91;10714899;82;21028;-81
2020/12/20 02:43:13;;;;;;;83.52;26.68;;;;;;;2.45;100.00;101392.13;10341574;84;21046;-83
2020/12/20 02:58:17;;;;;;;67.70;26.73;;;;;;;2.64;100.00;101388.42;10351899;84;21445;-80
2020/12/20 03:13:22;;;;;;;77.17;27.52;;;;;;;2.79;100.00;101368.02;10762047;81;21008;-79
2020/12/20 03:28:26;;;;;;;73.47;27.05;;;;;;;2.81;100.00;101386.50;10719890;82;21033;-79
2020/12/20 03:43:31;;;;;;;83.70;31.37;;;;;;;2.78;100.00;101383.17;10375330;84;21198;-81
2020/12/20 03:58:36;;;;;;;75.28;27.65;;;;;;;2.77;100.00;101371.11;10265766;84;21051;-82
2020/12/20 04:13:41;;;;;;;78.97;27.82;;;;;;;2.90;100.00;101378.80;10403993;84;21243;-87
2020/12/20 04:28:45;;;;;;;92.62;33.98;;;;;;;2.92;100.00;101373.13;10394952;84;21469;-92
2020/12/20 04:43:50;;;;;;;90.45;34.30;;;;;;;3.02;100.00;101384.43;10416444;84;21029;-92
2020/12/20 04:58:57;;;;;;;83.50;29.90;;;;;;;3.08;100.00;101368.64;10393588;85;21088;-89
2020/12/20 05:14:05;;;;;;;82.33;29.63;;;;;;;3.14;100.00;101364.05;9978796;87;21136;-89
2020/12/20 05:29:12;;;;;;;80.12;29.23;;;;;;;3.16;100.00;101362.23;10274712;84;21056;-90
2020/12/20 05:44:29;;;;;;;74.97;30.17;;;;;;;3.13;100.00;101380.52;10426325;85;21050;-92
2020/12/20 05:59:34;;;;;;;84.28;32.40;;;;;;;3.18;100.00;101382.94;10388654;84;21124;-88
2020/12/20 06:14:42;;;;;;;82.08;31.75;;;;;;;3.11;100.00;101398.33;10411994;84;21116;-88
2020/12/20 06:29:50;;;;;;;78.83;31.25;;;;;;;3.19;100.00;101419.61;10399678;85;21073;-90
2020/12/20 06:45:13;;;;;;;73.72;30.23;;;;;;;3.28;100.00;101421.02;10448349;85;21046;-90
2020/12/20 07:00:23;;;;;;;68.75;28.25;;;;;;;3.36;100.00;101428.03;10416536;84;21068;-89
2020/12/20 07:15:51;;;;;;;159.10;67.20;;;;;;;3.26;100.00;101445.72;10443461;84;21509;-88
2020/12/20 07:30:55;;;;;;;70.30;29.70;;;;;;;3.37;100.00;101467.81;10324710;85;21135;-87
2020/12/20 07:46:02;;;;;;;78.25;31.23;;;;;;;3.44;100.00;101473.97;10782095;81;21210;-89
2020/12/20 08:01:08;;;;;;;237.93;123.73;;;;;;;3.49;100.00;101488.91;10753111;82;21092;-90
2020/12/20 08:16:25;;;;;;;94.85;42.98;;;;;;;3.41;100.00;101503.94;10767870;81;21148;-88
2020/12/20 08:31:31;;;;;;;84.47;32.60;;;;;;;3.64;100.00;101504.78;10783984;81;21183;-88
2020/12/20 08:46:37;;;;;;;88.97;35.13;;;;;;;3.73;100.00;101510.07;10763989;81;21084;-88
2020/12/20 09:01:45;;;;;;;75.50;29.80;;;;;;;3.78;100.00;101511.56;10765333;82;21085;-88
2020/12/20 09:16:50;;;;;;;84.00;40.65;;;;;;;3.77;100.00;101520.72;10780181;81;20981;-90
2020/12/20 09:31:56;;;;;;;;;;;;;;;3.82;100.00;101520.08;10777294;82;20996;-81
2020/12/20 09:47:01;;;;;;;124.80;60.98;;;;;;;4.03;100.00;101522.73;10754024;82;20229;-82
2020/12/20 10:02:06;;;;;;;95.97;40.80;;;;;;;4.06;100.00;101515.64;10763994;82;21135;-81
2020/12/20 10:17:13;;;;;;;74.30;31.33;;;;;;;4.16;100.00;101516.95;10751227;82;21525;-82
2020/12/20 10:32:18;;;;;;;50.43;21.52;;;;;;;4.23;100.00;101508.45;10756950;82;21083;-82
2020/12/20 10:47:25;;;;;;;98.50;40.95;;;;;;;4.13;100.00;101504.54;10748095;81;21055;-82
2020/12/20 11:02:32;;;;;;;124.25;59.48;;;;;;;4.14;100.00;101493.25;10509589;83;21080;-81
2020/12/20 11:17:37;;;;;;;80.35;35.43;;;;;;;4.32;100.00;101500.27;10752464;81;21029;-82
2020/12/20 11:32:44;;;;;;;83.17;37.05;;;;;;;4.35;100.00;101488.90;10517531;84;21518;-83
2020/12/20 11:47:51;;;;;;;;;;;;;;;4.55;100.00;101479.41;10750369;81;21100;-82
2020/12/20 12:02:56;;;;;;;97.92;45.23;;;;;;;4.42;100.00;101485.58;10751044;81;20290;-84
2020/12/20 12:18:01;;;;;;;227.32;89.25;;;;;;;4.34;100.00;101482.00;10756759;81;21150;-81
2020/12/20 12:33:06;;;;;;;127.47;63.87;;;;;;;4.34;100.00;101471.62;10749787;82;21487;-84
2020/12/20 12:48:12;;;;;;;494.10;232.53;;;;;;;4.36;100.00;101472.41;10761467;81;21554;-83
2020/12/20 13:03:17;;;;;;;114.52;46.60;;;;;;;4.23;100.00;101471.25;10746834;82;21064;-84
2020/12/20 13:18:23;;;;;;;116.75;54.35;;;;;;;3.81;100.00;101484.64;10744040;82;21000;-82
2020/12/20 13:33:29;;;;;;;136.32;60.58;;;;;;;3.69;100.00;101473.00;10731220;82;21078;-85
2020/12/20 13:48:35;;;;;;;113.17;51.80;;;;;;;3.69;100.00;101460.02;10727014;82;21080;-83
2020/12/20 14:03:40;;;;;;;121.00;53.28;;;;;;;3.49;100.00;101459.06;10727890;82;21048;-83
2020/12/20 14:18:44;;;;;;;125.60;59.67;;;;;;;3.46;100.00;101456.60;10748710;81;21402;-84
2020/12/20 14:33:48;;;;;;;171.25;62.93;;;;;;;3.41;100.00;101450.75;10745989;81;21043;-83
2020/12/20 14:48:53;;;;;;;107.83;46.40;;;;;;;3.37;100.00;101444.46;10728959;81;22142;-83
2020/12/20 15:03:57;;;;;;;86.22;38.15;;;;;;;3.41;100.00;101442.97;10748732;81;21323;-85
2020/12/20 15:19:02;;;;;;;151.00;52.83;;;;;;;3.32;100.00;101438.14;10747306;82;21049;-84
2020/12/20 15:34:06;;;;;;;87.20;39.00;;;;;;;3.28;100.00;101450.37;10728354;81;21079;-85
2020/12/20 15:49:11;;;;;;;84.32;37.42;;;;;;;3.17;100.00;101437.00;10745446;82;21179;-84
2020/12/20 16:04:17;;;;;;;116.62;51.98;;;;;;;3.19;100.00;101435.64;10743131;82;21099;-86
2020/12/20 16:19:21;;;;;;;86.40;39.75;;;;;;;3.21;100.00;101422.14;10726395;82;21140;-89
2020/12/20 16:34:29;;;;;;;120.62;51.05;;;;;;;3.04;100.00;101427.55;10733539;81;21045;-88
2020/12/20 16:49:33;;;;;;;105.00;40.87;;;;;;;3.30;100.00;101418.75;10737426;81;21060;-88
2020/12/20 17:04:37;;;;;;;86.30;40.43;;;;;;;3.27;100.00;101410.24;10716708;82;21558;-88
2020/12/20 17:19:42;;;;;;;110.17;51.63;;;;;;;3.32;100.00;101409.14;10704044;82;21100;-88
2020/12/20 17:34:46;;;;;;;107.43;49.58;;;;;;;3.44;100.00;101409.57;10522903;84;21052;-88
2020/12/20 17:49:50;;;;;;;112.40;55.70;;;;;;;3.58;100.00;101413.75;10739532;82;21039;-89
2020/12/20 18:04:55;;;;;;;79.80;37.85;;;;;;;3.73;100.00;101397.16;10754955;81;20993;-89
2020/12/20 18:20:01;;;;;;;173.87;76.53;;;;;;;3.79;100.00;101387.36;10737488;81;21009;-88
2020/12/20 18:35:06;;;;;;;231.63;108.05;;;;;;;3.93;100.00;101375.55;10374910;84;21074;-87
2020/12/20 18:50:12;;;;;;;118.62;48.48;;;;;;;4.02;100.00;101391.20;10448619;84;21094;-93
2020/12/20 19:05:17;;;;;;;598.13;244.72;;;;;;;4.09;100.00;101398.66;10729735;82;21419;-88
2020/12/20 19:20:21;;;;;;;97.37;41.15;;;;;;;4.12;100.00;101396.39;10775387;81;21064;-85
2020/12/20 19:35:27;;;;;;;94.95;39.67;;;;;;;4.13;100.00;101417.09;10740789;81;21005;-84
2020/12/20 19:50:32;;;;;;;136.62;51.00;;;;;;;4.08;100.00;101420.34;10741095;81;21052;-84
2020/12/20 20:05:36;;;;;;;105.72;40.25;;;;;;;3.87;100.00;101423.39;10763274;82;21069;-86
2020/12/20 20:20:41;;;;;;;116.50;48.38;;;;;;;3.81;100.00;101437.91;10722639;81;21443;-81
2020/12/20 20:35:45;;;;;;;79.87;35.28;;;;;;;3.71;100.00;101429.67;10722982;82;21012;-85
2020/12/20 20:50:50;;;;;;;105.92;44.10;;;;;;;3.58;100.00;101434.52;10733896;81;21099;-85
2020/12/20 21:05:55;;;;;;;89.75;39.90;;;;;;;3.50;100.00;101443.06;10714030;81;21096;-84
2020/12/20 21:21:00;;;;;;;95.28;39.48;;;;;;;3.48;100.00;101428.86;10725359;82;21088;-85
2020/12/20 21:36:07;;;;;;;76.67;33.58;;;;;;;3.36;100.00;101429.80;10278898;85;21223;-85
2020/12/20 21:51:13;;;;;;;73.63;32.17;;;;;;;3.43;100.00;101415.66;10082530;86;21263;-84
2020/12/20 22:06:19;;;;;;;75.37;31.77;;;;;;;3.40;100.00;101408.84;10603557;82;21052;-86
2020/12/20 22:21:24;;;;;;;108.40;42.77;;;;;;;3.39;100.00;101416.69;10694424;81;21560;-86
2020/12/20 22:36:28;;;;;;;88.33;34.00;;;;;;;3.04;100.00;101422.36;10744397;82;21001;-83
2020/12/20 22:51:33;;;;;;;78.33;29.42;;;;;;;2.91;100.00;101422.44;10755495;81;21028;-83
2020/12/20 23:06:37;;;;;;;90.10;32.33;;;;;;;2.85;100.00;101417.47;10697469;81;21446;-83
2020/12/20 23:21:44;;;;;;;103.50;37.53;;;;;;;2.66;100.00;101422.05;10749503;82;21076;-85
2020/12/20 23:36:50;;;;;;;86.97;33.88;;;;;;;2.51;100.00;101426.05;10368912;84;21056;-84
2020/12/20 23:51:56;;;;;;;95.20;33.30;;;;;;;2.44;100.00;101430.61;10382892;84;21166;-84
